createdAt,value
2023-04-20T00:00:12.302Z,102236.81
2023-04-20T00:03:04.819Z,102250.47
2023-04-20T00:05:55.234Z,102248.84
2023-04-20T00:08:45.079Z,102261.72
2023-04-20T00:11:35.752Z,102276.75
2023-04-20T00:14:24.997Z,102274.06
2023-04-20T00:17:14.250Z,102254.31
2023-04-20T00:20:05.585Z,102240.09
2023-04-20T00:22:54.777Z,102233.50
2023-04-20T00:25:43.974Z,102228.88
2023-04-20T00:28:34.663Z,102222.59
2023-04-20T00:31:24.031Z,102210.03
2023-04-20T00:34:13.565Z,102211.94
2023-04-20T00:37:03.084Z,102198.53
2023-04-20T00:39:52.489Z,102207.84
2023-04-20T00:42:42.407Z,102206.22
2023-04-20T00:45:33.096Z,102219.38
2023-04-20T00:48:23.356Z,102222.91
2023-04-20T00:51:12.930Z,102219.38
2023-04-20T00:54:02.580Z,102235.22
2023-04-20T00:56:53.701Z,102217.72
2023-04-20T00:59:43.210Z,102224.28
2023-04-20T01:02:33.936Z,102215.84
2023-04-20T01:05:24.153Z,102216.09
2023-04-20T01:08:13.498Z,102218.81
2023-04-20T01:11:02.772Z,102211.44
2023-04-20T01:13:52.209Z,102208.44
2023-04-20T01:16:41.384Z,102218.28
2023-04-20T01:19:32.079Z,102212.53
2023-04-20T01:22:23.215Z,102201.63
2023-04-20T01:25:12.610Z,102204.88
2023-04-20T01:28:02.178Z,102186.03
2023-04-20T01:30:51.662Z,102181.66
2023-04-20T01:33:41.426Z,102187.94
2023-04-20T01:36:31.001Z,102166.34
2023-04-20T01:39:22.305Z,102198.59
2023-04-20T01:42:11.622Z,102198.06
2023-04-20T01:45:01.031Z,102214.19
2023-04-20T01:47:50.362Z,102217.75
2023-04-20T01:50:39.682Z,102211.75
2023-04-20T01:53:29.027Z,102206.81
2023-04-20T01:56:19.664Z,102204.91
2023-04-20T01:59:08.950Z,102191.22
2023-04-20T02:01:58.401Z,102181.38
2023-04-20T02:04:47.764Z,102184.66
2023-04-20T02:07:37.163Z,102191.50
2023-04-20T02:10:27.004Z,102178.94
2023-04-20T02:13:17.708Z,102190.41
2023-04-20T02:16:08.768Z,102189.03
2023-04-20T02:18:58.163Z,102187.94
2023-04-20T02:21:47.442Z,102180.31
2023-04-20T02:24:36.872Z,102176.44
2023-04-20T02:27:26.328Z,102162.50
2023-04-20T02:30:17.089Z,102166.88
2023-04-20T02:33:06.923Z,102174.00
2023-04-20T02:35:56.317Z,102177.00
2023-04-20T02:38:45.734Z,102172.34
2023-04-20T02:41:34.956Z,102188.75
2023-04-20T02:44:25.689Z,102184.34
2023-04-20T02:47:16.396Z,102195.59
2023-04-20T02:50:07.160Z,102200.50
2023-04-20T02:53:07.402Z,102187.66
2023-04-20T02:55:59.055Z,102193.66
2023-04-20T02:59:01.572Z,102201.56
2023-04-20T03:02:10.210Z,102200.78
2023-04-20T03:05:02.191Z,102201.59
2023-04-20T03:08:01.877Z,102197.75
2023-04-20T03:10:51.744Z,102203.22
2023-04-20T03:13:43.218Z,102211.13
2023-04-20T03:16:32.985Z,102205.13
2023-04-20T03:19:22.707Z,102188.72
2023-04-20T03:22:13.375Z,102203.47
2023-04-20T03:25:02.827Z,102196.06
2023-04-20T03:28:15.168Z,102206.19
2023-04-20T03:31:06.646Z,102214.66
2023-04-20T03:33:56.589Z,102209.47
2023-04-20T03:36:45.917Z,102217.13
2023-04-20T03:39:36.660Z,102212.16
2023-04-20T03:42:26.515Z,102208.91
2023-04-20T03:45:17.376Z,102201.72
2023-04-20T03:48:07.288Z,102199.88
2023-04-20T03:50:56.582Z,102183.47
2023-04-20T03:53:45.822Z,102183.16
2023-04-20T03:56:37.726Z,102186.97
2023-04-20T03:59:27.260Z,102189.19
2023-04-20T04:02:16.895Z,102183.16
2023-04-20T04:05:09.543Z,102179.34
2023-04-20T04:07:58.881Z,102184.25
2023-04-20T04:10:48.274Z,102175.50
2023-04-20T04:13:38.955Z,102167.56
2023-04-20T04:16:30.796Z,102168.94
2023-04-20T04:19:20.245Z,102157.97
2023-04-20T04:22:10.782Z,102157.97
2023-04-20T04:25:11.828Z,102162.94
2023-04-20T04:28:04.612Z,102149.78
2023-04-20T04:30:57.372Z,102174.41
2023-04-20T04:33:47.052Z,102163.69
2023-04-20T04:36:46.399Z,102162.34
2023-04-20T04:39:39.776Z,102161.53
2023-04-20T04:42:36.404Z,102152.53
2023-04-20T04:45:28.606Z,102152.78
2023-04-20T04:48:19.869Z,102150.31
2023-04-20T04:51:09.631Z,102142.94
2023-04-20T04:53:58.905Z,102149.22
2023-04-20T04:56:48.139Z,102147.81
2023-04-20T04:59:37.436Z,102154.09
2023-04-20T05:02:26.936Z,102168.34
2023-04-20T05:05:17.942Z,102164.50
2023-04-20T05:08:07.386Z,102152.47
2023-04-20T05:10:58.199Z,102163.16
2023-04-20T05:13:48.599Z,102147.81
2023-04-20T05:16:38.113Z,102154.09
2023-04-20T05:19:27.470Z,102139.59
2023-04-20T05:22:18.358Z,102156.56
2023-04-20T05:25:08.980Z,102168.31
2023-04-20T05:27:58.283Z,102169.44
2023-04-20T05:30:47.620Z,102187.41
2023-04-20T05:33:36.868Z,102183.06
2023-04-20T05:36:26.558Z,102176.75
2023-04-20T05:39:17.687Z,102166.63
2023-04-20T05:42:07.290Z,102155.75
2023-04-20T05:44:56.517Z,102144.84
2023-04-20T05:47:55.457Z,102146.47
2023-04-20T05:50:44.760Z,102158.22
2023-04-20T05:53:33.980Z,102149.47
2023-04-20T05:56:24.662Z,102172.97
2023-04-20T05:59:14.009Z,102176.28
2023-04-20T06:02:03.304Z,102169.97
2023-04-20T06:04:53.041Z,102185.03
2023-04-20T06:07:42.406Z,102176.78
2023-04-20T06:10:34.323Z,102167.25
2023-04-20T06:13:25.206Z,102181.47
2023-04-20T06:16:14.489Z,102171.13
2023-04-20T06:19:03.790Z,102174.41
2023-04-20T06:21:53.120Z,102184.53
2023-04-20T06:24:43.192Z,102176.88
2023-04-20T06:27:32.524Z,102179.91
2023-04-20T06:30:23.859Z,102178.28
2023-04-20T06:33:17.195Z,102189.75
2023-04-20T06:36:08.970Z,102182.41
2023-04-20T06:38:58.264Z,102180.78
2023-04-20T06:41:47.536Z,102175.03
2023-04-20T06:44:37.316Z,102174.50
2023-04-20T06:47:32.065Z,102168.47
2023-04-20T06:50:22.156Z,102173.41
2023-04-20T06:53:11.472Z,102177.81
2023-04-20T06:56:00.967Z,102177.81
2023-04-20T06:58:50.307Z,102183.81
2023-04-20T07:01:39.712Z,102184.91
2023-04-20T07:04:30.548Z,102174.28
2023-04-20T07:07:19.907Z,102173.47
2023-04-20T07:10:10.661Z,102188.75
2023-04-20T07:12:59.994Z,102178.63
2023-04-20T07:15:49.426Z,102160.84
2023-04-20T07:18:38.974Z,102184.94
2023-04-20T07:21:30.797Z,102177.78
2023-04-20T07:24:20.081Z,102193.03
2023-04-20T07:27:09.297Z,102175.41
2023-04-20T07:29:59.978Z,102180.47
2023-04-20T07:32:50.424Z,102179.25
2023-04-20T07:35:39.813Z,102182.31
2023-04-20T07:38:30.668Z,102192.81
2023-04-20T07:41:20.042Z,102185.00
2023-04-20T07:44:09.520Z,102182.19
2023-04-20T07:46:58.815Z,102180.94
2023-04-20T07:49:48.324Z,102166.00
2023-04-20T07:52:37.774Z,102178.13
2023-04-20T07:55:28.373Z,102180.03
2023-04-20T07:58:17.770Z,102173.75
2023-04-20T08:01:07.249Z,102174.50
2023-04-20T08:03:56.732Z,102166.63
2023-04-20T08:06:46.077Z,102173.69
2023-04-20T08:09:35.485Z,102181.56
2023-04-20T08:12:26.092Z,102184.00
2023-04-20T08:15:15.509Z,102201.16
2023-04-20T08:18:05.622Z,102196.53
2023-04-20T08:20:55.003Z,102164.75
2023-04-20T08:23:44.315Z,102179.56
2023-04-20T08:26:33.815Z,102192.34
2023-04-20T08:29:24.458Z,102199.09
2023-04-20T08:32:13.888Z,102203.22
2023-04-20T08:35:04.300Z,102197.84
2023-04-20T08:37:53.697Z,102199.47
2023-04-20T08:40:43.155Z,102193.28
2023-04-20T08:43:33.534Z,102189.72
2023-04-20T08:46:25.818Z,102201.75
2023-04-20T08:49:17.682Z,102202.75
2023-04-20T08:52:07.619Z,102210.19
2023-04-20T08:54:58.013Z,102195.00
2023-04-20T08:57:49.411Z,102207.56
2023-04-20T09:00:48.460Z,102188.44
2023-04-20T09:03:41.252Z,102191.88
2023-04-20T09:06:31.642Z,102210.53
2023-04-20T09:09:22.694Z,102204.59
2023-04-20T09:12:12.032Z,102195.50
2023-04-20T09:15:01.275Z,102207.25
2023-04-20T09:17:50.701Z,102204.97
2023-04-20T09:20:41.834Z,102200.66
2023-04-20T09:23:31.434Z,102207.41
2023-04-20T09:26:20.612Z,102195.91
2023-04-20T09:29:18.593Z,102194.03
2023-04-20T09:32:08.046Z,102208.72
2023-04-20T09:34:57.534Z,102199.97
2023-04-20T09:37:51.849Z,102198.19
2023-04-20T09:40:41.199Z,102198.56
2023-04-20T09:43:31.843Z,102195.38
2023-04-20T09:46:21.194Z,102194.59
2023-04-20T09:49:11.895Z,102190.41
2023-04-20T09:52:04.612Z,102193.53
2023-04-20T09:54:56.345Z,102189.13
2023-04-20T09:57:46.952Z,102182.78
2023-04-20T10:00:36.257Z,102185.41
2023-04-20T10:03:26.256Z,102187.84
2023-04-20T10:06:23.573Z,102196.50
2023-04-20T10:09:24.565Z,102179.03
2023-04-20T10:12:15.127Z,102185.22
2023-04-20T10:15:04.945Z,102187.97
2023-04-20T10:17:55.596Z,102160.78
2023-04-20T10:20:44.950Z,102169.41
2023-04-20T10:23:34.168Z,102179.56
2023-04-20T10:26:24.498Z,102198.41
2023-04-20T10:29:25.587Z,102192.03
2023-04-20T10:32:24.699Z,102194.00
2023-04-20T10:35:16.176Z,102176.59
2023-04-20T10:38:05.597Z,102180.66
2023-04-20T10:40:54.786Z,102180.06
2023-04-20T10:43:44.592Z,102166.50
2023-04-20T10:46:35.363Z,102164.09
2023-04-20T10:49:29.029Z,102167.13
2023-04-20T10:52:18.194Z,102167.09
2023-04-20T10:55:18.841Z,102167.81
2023-04-20T10:58:08.447Z,102174.13
2023-04-20T11:01:02.534Z,102165.81
2023-04-20T11:03:54.559Z,102168.06
2023-04-20T11:06:45.649Z,102169.00
2023-04-20T11:09:35.093Z,102164.59
2023-04-20T11:12:24.304Z,102160.75
2023-04-20T11:15:13.962Z,102154.88
2023-04-20T11:18:09.079Z,102143.00
2023-04-20T11:20:59.841Z,102165.63
2023-04-20T11:23:50.394Z,102163.69
2023-04-20T11:26:40.981Z,102156.78
2023-04-20T11:29:35.016Z,102160.47
2023-04-20T11:32:24.815Z,102155.91
2023-04-20T11:35:14.563Z,102155.56
2023-04-20T11:38:05.705Z,102155.56
2023-04-20T11:40:55.038Z,102157.84
2023-04-20T11:43:45.145Z,102158.19
2023-04-20T11:46:37.785Z,102152.09
2023-04-20T11:49:28.929Z,102156.59
2023-04-20T11:52:18.377Z,102152.44
2023-04-20T11:55:11.431Z,102139.00
2023-04-20T11:58:00.656Z,102135.75
2023-04-20T12:00:50.833Z,102133.84
2023-04-20T12:03:40.302Z,102123.31
2023-04-20T12:06:30.058Z,102125.31
2023-04-20T12:09:19.354Z,102120.97
2023-04-20T12:12:10.452Z,102128.84
2023-04-20T12:14:59.704Z,102136.03
2023-04-20T12:17:48.948Z,102128.84
2023-04-20T12:20:38.359Z,102145.56
2023-04-20T12:23:27.615Z,102154.69
2023-04-20T12:26:17.215Z,102150.91
2023-04-20T12:29:08.399Z,102151.69
2023-04-20T12:31:57.789Z,102152.09
2023-04-20T12:34:47.028Z,102150.06
2023-04-20T12:37:36.325Z,102152.13
2023-04-20T12:40:25.961Z,102145.91
2023-04-20T12:43:16.096Z,102136.63
2023-04-20T12:46:06.791Z,102130.50
2023-04-20T12:48:56.288Z,102136.03
2023-04-20T12:51:45.647Z,102123.63
2023-04-20T12:54:35.260Z,102124.03
2023-04-20T12:57:24.502Z,102125.03
2023-04-20T13:00:15.348Z,102123.25
2023-04-20T13:03:06.264Z,102112.84
2023-04-20T13:05:55.706Z,102122.91
2023-04-20T13:08:44.856Z,102119.91
2023-04-20T13:11:34.113Z,102118.47
2023-04-20T13:14:23.265Z,102117.88
2023-04-20T13:17:12.520Z,102118.81
2023-04-20T13:20:04.928Z,102122.41
2023-04-20T13:22:57.762Z,102106.09
2023-04-20T13:25:47.480Z,102083.75
2023-04-20T13:28:37.884Z,102095.81
2023-04-20T13:31:27.272Z,102097.66
2023-04-20T13:34:16.906Z,102101.22
2023-04-20T13:37:07.873Z,102109.59
2023-04-20T13:39:57.485Z,102107.41
2023-04-20T13:42:46.665Z,102110.31
2023-04-20T13:45:36.133Z,102105.91
2023-04-20T13:48:25.352Z,102095.94
2023-04-20T13:51:14.832Z,102096.22
2023-04-20T13:54:05.758Z,102068.84
2023-04-20T13:56:55.137Z,102081.56
2023-04-20T13:59:44.383Z,102083.88
2023-04-20T14:02:34.178Z,102063.78
2023-04-20T14:05:23.698Z,102077.84
2023-04-20T14:08:13.840Z,102075.19
2023-04-20T14:11:04.611Z,102074.16
2023-04-20T14:13:54.168Z,102070.91
2023-04-20T14:16:47.404Z,102041.22
2023-04-20T14:19:36.643Z,102042.75
2023-04-20T14:22:25.940Z,102016.66
2023-04-20T14:25:15.171Z,102040.34
2023-04-20T14:28:06.376Z,102039.97
2023-04-20T14:30:55.585Z,102026.38
2023-04-20T14:33:45.467Z,102015.53
2023-04-20T14:36:34.978Z,102028.25
2023-04-20T14:39:24.424Z,102028.94
2023-04-20T14:42:14.420Z,102020.28
2023-04-20T14:45:06.254Z,102013.56
2023-04-20T14:47:55.935Z,102019.38
2023-04-20T14:50:45.297Z,102007.09
2023-04-20T14:53:34.853Z,102008.56
2023-04-20T14:56:24.102Z,102026.66
2023-04-20T14:59:13.510Z,101996.69
2023-04-20T15:02:05.959Z,102017.63
2023-04-20T15:04:55.463Z,102013.81
2023-04-20T15:07:45.907Z,102003.28
2023-04-20T15:10:36.519Z,102008.16
2023-04-20T15:13:27.815Z,101993.88
2023-04-20T15:16:17.051Z,101992.03
2023-04-20T15:19:07.801Z,101996.53
2023-04-20T15:21:57.010Z,101990.34
2023-04-20T15:24:46.280Z,101970.56
2023-04-20T15:27:36.419Z,101973.81
2023-04-20T15:30:26.149Z,101974.06
2023-04-20T15:33:15.606Z,101978.56
2023-04-20T15:36:06.828Z,101958.88
2023-04-20T15:38:57.860Z,101959.56
2023-04-20T15:41:47.420Z,101959.41
2023-04-20T15:44:36.642Z,101961.31
2023-04-20T15:47:26.043Z,101960.22
2023-04-20T15:50:15.701Z,101952.69
2023-04-20T15:53:07.422Z,101949.47
2023-04-20T15:56:00.324Z,101949.66
2023-04-20T15:58:50.488Z,101943.72
2023-04-20T16:01:39.877Z,101938.53
2023-04-20T16:04:29.290Z,101947.97
2023-04-20T16:07:18.722Z,101940.22
2023-04-20T16:10:11.339Z,101918.66
2023-04-20T16:13:00.600Z,101945.00
2023-04-20T16:15:50.058Z,101919.63
2023-04-20T16:18:39.342Z,101926.03
2023-04-20T16:21:28.743Z,101932.38
2023-04-20T16:24:18.683Z,101923.44
2023-04-20T16:27:09.814Z,101929.47
2023-04-20T16:29:59.141Z,101914.50
2023-04-20T16:32:48.488Z,101907.00
2023-04-20T16:35:37.796Z,101900.03
2023-04-20T16:38:27.069Z,101887.03
2023-04-20T16:41:16.616Z,101888.00
2023-04-20T16:44:07.261Z,101882.31
2023-04-20T16:46:57.059Z,101868.63
2023-04-20T16:49:46.585Z,101859.19
2023-04-20T16:52:36.478Z,101861.47
2023-04-20T16:55:26.298Z,101872.81
2023-04-20T16:58:15.624Z,101863.34
2023-04-20T17:01:06.602Z,101869.31
2023-04-20T17:03:56.322Z,101874.97
2023-04-20T17:06:46.427Z,101868.72
2023-04-20T17:09:35.765Z,101872.78
2023-04-20T17:12:25.211Z,101873.78
2023-04-20T17:15:14.606Z,101876.78
2023-04-20T17:18:06.950Z,101859.34
2023-04-20T17:20:57.870Z,101872.63
2023-04-20T17:23:47.481Z,101872.72
2023-04-20T17:26:36.814Z,101872.97
2023-04-20T17:29:26.952Z,101878.13
2023-04-20T17:32:16.352Z,101884.59
2023-04-20T17:35:08.146Z,101884.16
2023-04-20T17:37:57.462Z,101890.78
2023-04-20T17:40:46.699Z,101887.78
2023-04-20T17:43:37.065Z,101881.28
2023-04-20T17:46:26.554Z,101882.63
2023-04-20T17:49:15.884Z,101889.28
2023-04-20T17:52:12.506Z,101890.09
2023-04-20T17:55:02.189Z,101884.75
2023-04-20T17:57:51.466Z,101880.00
2023-04-20T18:00:40.837Z,101897.84
2023-04-20T18:03:30.346Z,101892.88
2023-04-20T18:06:19.667Z,101888.31
2023-04-20T18:09:10.651Z,101896.38
2023-04-20T18:11:59.872Z,101896.16
2023-04-20T18:14:49.134Z,101890.13
2023-04-20T18:17:38.444Z,101867.00
2023-04-20T18:20:28.418Z,101903.56
2023-04-20T18:23:19.285Z,101894.56
2023-04-20T18:26:17.265Z,101891.31
2023-04-20T18:29:07.017Z,101891.56
2023-04-20T18:31:59.413Z,101889.81
2023-04-20T18:34:49.553Z,101889.31
2023-04-20T18:37:39.164Z,101885.06
2023-04-20T18:40:29.003Z,101894.97
2023-04-20T18:43:19.750Z,101891.13
2023-04-20T18:46:09.008Z,101890.63
2023-04-20T18:48:58.733Z,101808.41
2023-04-20T18:51:48.126Z,101871.50
2023-04-20T18:54:38.536Z,101883.06
2023-04-20T18:57:28.905Z,101884.28
2023-04-20T19:00:21.171Z,101886.34
2023-04-20T19:03:10.961Z,101874.75
2023-04-20T19:06:00.433Z,101871.19
2023-04-20T19:08:51.275Z,101857.25
2023-04-20T19:11:40.595Z,101863.25
2023-04-20T19:14:29.919Z,101856.84
2023-04-20T19:17:20.519Z,101857.34
2023-04-20T19:20:11.467Z,101863.66
2023-04-20T19:23:00.857Z,101867.59
2023-04-20T19:25:50.265Z,101859.84
2023-04-20T19:28:39.642Z,101859.66
2023-04-20T19:31:34.184Z,101860.16
2023-04-20T19:34:24.847Z,101862.78
2023-04-20T19:37:14.145Z,101858.22
2023-04-20T19:40:05.609Z,101859.44
2023-04-20T19:42:55.339Z,101846.59
2023-04-20T19:45:44.930Z,101839.56
2023-04-20T19:48:34.313Z,101852.78
2023-04-20T19:51:25.606Z,101843.09
2023-04-20T19:54:16.718Z,101845.84
2023-04-20T19:57:05.995Z,101834.06
2023-04-20T19:59:55.614Z,101840.06
2023-04-20T20:02:45.810Z,101846.97
2023-04-20T20:05:35.258Z,101829.13
2023-04-20T20:08:26.260Z,101831.56
2023-04-20T20:11:15.593Z,101826.97
2023-04-20T20:14:04.948Z,101817.78
2023-04-20T20:16:54.239Z,101818.22
2023-04-20T20:19:43.563Z,101826.25
2023-04-20T20:22:32.867Z,101810.88
2023-04-20T20:25:23.982Z,101812.09
2023-04-20T20:28:15.763Z,101812.69
2023-04-20T20:31:05.409Z,101822.94
2023-04-20T20:33:55.165Z,101804.69
2023-04-20T20:36:45.919Z,101825.47
2023-04-20T20:39:35.271Z,101812.41
2023-04-20T20:42:30.974Z,101815.09
2023-04-20T20:45:21.966Z,101808.19
2023-04-20T20:48:11.272Z,101818.81
2023-04-20T20:51:00.508Z,101810.94
2023-04-20T20:53:49.773Z,101812.28
2023-04-20T20:56:38.997Z,101812.88
2023-04-20T20:59:29.665Z,101806.94
2023-04-20T21:02:19.074Z,101811.31
2023-04-20T21:05:09.027Z,101810.34
2023-04-20T21:07:58.401Z,101810.84
2023-04-20T21:10:47.809Z,101812.84
2023-04-20T21:13:37.105Z,101804.84
2023-04-20T21:16:27.753Z,101812.63
2023-04-20T21:19:17.430Z,101798.75
2023-04-20T21:22:06.903Z,101803.44
2023-04-20T21:24:56.088Z,101803.22
2023-04-20T21:27:45.380Z,101806.47
2023-04-20T21:30:35.973Z,101796.78
2023-04-20T21:33:26.947Z,101799.88
2023-04-20T21:36:16.172Z,101803.97
2023-04-20T21:39:05.744Z,101797.59
2023-04-20T21:41:55.016Z,101783.81
2023-04-20T21:44:44.344Z,101795.94
2023-04-20T21:47:33.673Z,101783.44
2023-04-20T21:50:27.234Z,101785.88
2023-04-20T21:53:16.549Z,101784.31
2023-04-20T21:56:06.273Z,101768.53
2023-04-20T21:58:55.910Z,101786.03
2023-04-20T22:01:45.162Z,101764.88
2023-04-20T22:04:35.058Z,101773.66
2023-04-20T22:07:27.626Z,101771.63
2023-04-20T22:10:16.925Z,101770.38
2023-04-20T22:13:06.287Z,101764.66
2023-04-20T22:15:55.672Z,101773.72
2023-04-20T22:18:45.145Z,101768.00
2023-04-20T22:21:34.648Z,101776.25
2023-04-20T22:24:25.633Z,101774.88
2023-04-20T22:27:15.154Z,101770.66
2023-04-20T22:30:05.762Z,101740.25
2023-04-20T22:32:55.198Z,101762.53
2023-04-20T22:35:44.467Z,101757.09
2023-04-20T22:38:36.380Z,101761.47
2023-04-20T22:41:27.074Z,101761.06
2023-04-20T22:44:16.346Z,101762.47
2023-04-20T22:47:06.515Z,101754.88
2023-04-20T22:49:56.444Z,101756.50
2023-04-20T22:52:46.525Z,101764.13
2023-04-20T22:55:36.053Z,101763.44
2023-04-20T22:58:26.969Z,101758.47
2023-04-20T23:01:16.692Z,101755.00
2023-04-20T23:04:06.872Z,101755.56
2023-04-20T23:06:57.784Z,101740.38
2023-04-20T23:09:48.228Z,101747.53
2023-04-20T23:12:38.434Z,101749.88
2023-04-20T23:15:29.152Z,101736.28
2023-04-20T23:18:18.394Z,101748.81
2023-04-20T23:21:08.336Z,101751.84
2023-04-20T23:23:58.041Z,101744.75
2023-04-20T23:26:48.268Z,101746.16
2023-04-20T23:29:38.679Z,101739.81
2023-04-20T23:32:29.319Z,101755.22
2023-04-20T23:35:19.047Z,101750.09
2023-04-20T23:38:08.266Z,101742.94
2023-04-20T23:40:57.474Z,101736.69
2023-04-20T23:43:46.794Z,101748.94
2023-04-20T23:46:36.197Z,101748.69
2023-04-20T23:49:26.882Z,101746.78
2023-04-20T23:52:16.179Z,101737.28
2023-04-20T23:55:06.495Z,101734.78
2023-04-20T23:57:58.484Z,101737.34
